createdAt,value
2022-08-25T00:04:14.646Z,100206.63
2022-08-25T00:09:20.406Z,100209.28
2022-08-25T00:14:30.254Z,100204.13
2022-08-25T00:19:37.251Z,100201.59
2022-08-25T00:24:41.036Z,100203.69
2022-08-25T00:29:46.895Z,100200.31
2022-08-25T00:34:50.665Z,100203.88
2022-08-25T00:39:57.422Z,100200.44
2022-08-25T00:45:02.819Z,100178.75
2022-08-25T00:50:11.656Z,100189.19
2022-08-25T00:55:20.015Z,100198.75
2022-08-25T01:00:28.727Z,100191.81
2022-08-25T01:05:32.559Z,100201.63
2022-08-25T01:10:38.036Z,100196.41
2022-08-25T01:15:43.134Z,100195.56
2022-08-25T01:20:51.106Z,100199.13
2022-08-25T01:26:03.219Z,100193.97
2022-08-25T01:31:23.831Z,100196.63
2022-08-25T01:36:31.227Z,100195.69
2022-08-25T01:41:46.416Z,100199.28
2022-08-25T01:46:50.256Z,100195.13
2022-08-25T01:52:01.792Z,100194.34
2022-08-25T01:57:05.868Z,100196.97
2022-08-25T02:02:10.555Z,100199.66
2022-08-25T02:07:15.550Z,100196.16
2022-08-25T02:12:19.066Z,100198.84
2022-08-25T02:17:42.503Z,100192.03
2022-08-25T02:22:51.141Z,100208.53
2022-08-25T02:28:00.207Z,100202.47
2022-08-25T02:33:04.086Z,100196.41
2022-08-25T02:38:10.680Z,100199.91
2022-08-25T02:43:14.094Z,100195.53
2022-08-25T02:48:17.602Z,100192.81
2022-08-25T02:53:23.512Z,100189.97
2022-08-25T02:58:27.910Z,100188.16
2022-08-25T03:03:31.411Z,100189.63
2022-08-25T03:08:36.663Z,100192.81
2022-08-25T03:13:40.391Z,100190.09
2022-08-25T03:18:44.474Z,100190.41
2022-08-25T03:23:49.658Z,100188.09
2022-08-25T03:28:55.788Z,100198.88
2022-08-25T03:33:59.861Z,100190.28
2022-08-25T03:39:06.254Z,100190.44
2022-08-25T03:44:11.338Z,100179.66
2022-08-25T03:49:16.915Z,100184.59
2022-08-25T03:54:24.393Z,100185.59
2022-08-25T03:59:29.741Z,100180.69
2022-08-25T04:04:34.224Z,100171.81
2022-08-25T04:09:40.146Z,100177.88
2022-08-25T04:14:44.268Z,100185.19
2022-08-25T04:19:47.727Z,100183.78
2022-08-25T04:24:53.248Z,100177.88
2022-08-25T04:29:56.949Z,100164.78
2022-08-25T04:35:00.597Z,100165.75
2022-08-25T04:40:08.071Z,100158.47
2022-08-25T04:45:11.868Z,100165.50
2022-08-25T04:50:15.459Z,100156.91
2022-08-25T04:55:20.396Z,100166.28
2022-08-25T05:00:24.264Z,100148.41
2022-08-25T05:05:28.142Z,100160.56
2022-08-25T05:10:34.027Z,100160.72
2022-08-25T05:15:52.694Z,100159.00
2022-08-25T05:20:57.365Z,100154.34
2022-08-25T05:26:07.772Z,100143.63
2022-08-25T05:31:14.575Z,100147.97
2022-08-25T05:36:19.851Z,100143.03
2022-08-25T05:41:29.015Z,100150.13
2022-08-25T05:46:32.436Z,100142.91
2022-08-25T05:51:35.973Z,100153.66
2022-08-25T05:56:41.390Z,100144.53
2022-08-25T06:02:01.488Z,100140.66
2022-08-25T06:07:04.945Z,100142.66
2022-08-25T06:12:11.463Z,100148.72
2022-08-25T06:17:15.090Z,100155.47
2022-08-25T06:22:18.784Z,100150.59
2022-08-25T06:27:23.613Z,100159.56
2022-08-25T06:32:27.115Z,100154.66
2022-08-25T06:37:30.820Z,100153.81
2022-08-25T06:42:36.443Z,100151.69
2022-08-25T06:47:40.025Z,100145.16
2022-08-25T06:52:43.511Z,100136.91
2022-08-25T06:57:49.146Z,100140.97
2022-08-25T07:02:52.686Z,100128.25
2022-08-25T07:07:57.162Z,100123.19
2022-08-25T07:13:02.438Z,100134.88
2022-08-25T07:18:06.544Z,100128.63
2022-08-25T07:23:10.098Z,100127.56
2022-08-25T07:28:15.739Z,100120.94
2022-08-25T07:33:19.209Z,100122.28
2022-08-25T07:38:23.090Z,100114.38
2022-08-25T07:43:28.396Z,100118.50
2022-08-25T07:48:33.291Z,100112.75
2022-08-25T07:53:37.535Z,100104.38
2022-08-25T07:58:43.523Z,100103.81
2022-08-25T08:03:50.849Z,100090.19
2022-08-25T08:08:57.828Z,100079.44
2022-08-25T08:14:04.724Z,100080.31
2022-08-25T08:19:08.142Z,100068.69
2022-08-25T08:24:25.063Z,100073.72
2022-08-25T08:29:38.255Z,100060.75
2022-08-25T08:34:44.328Z,100054.22
2022-08-25T08:39:48.340Z,100048.66
2022-08-25T08:45:21.838Z,100047.69
2022-08-25T08:50:33.584Z,100042.66
2022-08-25T08:55:41.981Z,100035.34
2022-08-25T09:00:52.212Z,100034.31
2022-08-25T09:06:02.082Z,100030.53
2022-08-25T09:11:14.873Z,100023.28
2022-08-25T09:16:46.764Z,100026.63
2022-08-25T09:21:58.739Z,100021.19
2022-08-25T09:27:11.716Z,100012.09
2022-08-25T09:32:24.130Z,100012.72
2022-08-25T09:37:29.542Z,100005.56
2022-08-25T09:42:51.231Z,100006.50
2022-08-25T09:48:03.741Z,99995.50
2022-08-25T09:53:18.604Z,99995.84
2022-08-25T09:58:25.540Z,99991.16
2022-08-25T10:03:31.606Z,99987.06
2022-08-25T10:08:53.064Z,99973.28
2022-08-25T10:14:03.814Z,99975.09
2022-08-25T10:19:12.894Z,99964.59
2022-08-25T10:24:16.658Z,99968.16
2022-08-25T10:29:38.549Z,99961.97
2022-08-25T10:34:51.739Z,99953.59
2022-08-25T10:40:16.610Z,99952.03
2022-08-25T10:45:41.697Z,99947.41
2022-08-25T10:50:50.838Z,99940.75
2022-08-25T10:56:07.588Z,99936.50
2022-08-25T11:01:19.778Z,99935.19
2022-08-25T11:06:40.322Z,99925.97
2022-08-25T11:11:51.293Z,99918.56
2022-08-25T11:17:05.052Z,99912.41
2022-08-25T11:22:19.291Z,99899.81
2022-08-25T11:27:24.717Z,99895.59
2022-08-25T11:32:33.657Z,99894.88
2022-08-25T11:37:47.183Z,99879.97
2022-08-25T11:43:01.941Z,99883.50
2022-08-25T11:48:19.308Z,99885.41
2022-08-25T11:53:28.953Z,99884.69
2022-08-25T11:58:46.766Z,99876.06
2022-08-25T12:04:14.920Z,99870.38
2022-08-25T12:09:23.606Z,99870.50
2022-08-25T12:14:48.088Z,99863.84
2022-08-25T12:19:55.794Z,99861.00
2022-08-25T12:25:10.046Z,99852.91
2022-08-25T12:30:21.107Z,99845.69
2022-08-25T12:35:30.653Z,99842.81
2022-08-25T12:40:39.394Z,99850.94
2022-08-25T12:45:45.493Z,99836.31
2022-08-25T12:50:58.328Z,99831.59
2022-08-25T12:56:07.217Z,99839.59
2022-08-25T13:01:35.279Z,99832.22
2022-08-25T13:06:55.774Z,99823.84
2022-08-25T13:12:08.924Z,99817.69
2022-08-25T13:17:25.856Z,99814.59
2022-08-25T13:22:29.462Z,99813.19
2022-08-25T13:27:38.555Z,99807.66
2022-08-25T13:32:42.396Z,99802.81
2022-08-25T13:37:46.162Z,99798.44
2022-08-25T13:42:56.151Z,99805.22
2022-08-25T13:48:01.695Z,99790.59
2022-08-25T13:53:12.584Z,99796.59
2022-08-25T13:58:24.332Z,99791.47
2022-08-25T14:03:33.437Z,99785.91
2022-08-25T14:08:40.524Z,99788.59
2022-08-25T14:13:46.391Z,99779.31
2022-08-25T14:18:53.483Z,99768.97
2022-08-25T14:23:58.865Z,99771.53
2022-08-25T14:29:04.865Z,99772.66
2022-08-25T14:34:16.828Z,99767.81
2022-08-25T14:39:23.541Z,99763.69
2022-08-25T14:44:28.419Z,99757.88
2022-08-25T14:49:38.452Z,99752.47
2022-08-25T14:54:42.147Z,99744.69
2022-08-25T14:59:47.882Z,99747.28
2022-08-25T15:04:54.146Z,99750.72
2022-08-25T15:09:57.706Z,99742.69
2022-08-25T15:15:04.155Z,99739.44
2022-08-25T15:20:09.621Z,99743.72
2022-08-25T15:25:15.525Z,99741.53
2022-08-25T15:30:20.516Z,99732.41
2022-08-25T15:35:23.983Z,99735.44
2022-08-25T15:40:37.964Z,99733.84
2022-08-25T15:45:42.973Z,99721.78
2022-08-25T15:50:47.451Z,99732.19
2022-08-25T15:55:54.078Z,99726.66
2022-08-25T16:00:59.235Z,99730.94
2022-08-25T16:06:05.422Z,99733.47
2022-08-25T16:11:18.778Z,99732.50
2022-08-25T16:16:25.851Z,99737.25
2022-08-25T16:21:36.191Z,99733.88
2022-08-25T16:26:48.495Z,99734.19
2022-08-25T16:31:55.151Z,99734.47
2022-08-25T16:37:00.343Z,99736.31
2022-08-25T16:42:03.849Z,99737.41
2022-08-25T16:47:09.417Z,99736.09
2022-08-25T16:52:28.427Z,99749.28
2022-08-25T16:57:32.163Z,99749.09
2022-08-25T17:02:36.822Z,99744.97
2022-08-25T17:07:43.334Z,99748.38
2022-08-25T17:12:46.814Z,99749.75
2022-08-25T17:17:51.727Z,99753.09
2022-08-25T17:22:55.191Z,99754.25
2022-08-25T17:27:59.099Z,99761.22
2022-08-25T17:33:07.563Z,99755.94
2022-08-25T17:38:13.052Z,99750.75
2022-08-25T17:43:16.455Z,99753.31
2022-08-25T17:48:24.194Z,99750.47
2022-08-25T17:53:31.003Z,99756.53
2022-08-25T17:58:36.490Z,99759.63
2022-08-25T18:03:41.490Z,99764.47
2022-08-25T18:08:51.645Z,99763.31
2022-08-25T18:13:57.417Z,99759.47
2022-08-25T18:19:03.085Z,99766.13
2022-08-25T18:24:10.646Z,99764.97
2022-08-25T18:29:14.462Z,99764.59
2022-08-25T18:34:24.139Z,99768.31
2022-08-25T18:39:45.262Z,99741.41
2022-08-25T18:44:48.686Z,99747.75
2022-08-25T18:49:53.822Z,99744.06
2022-08-25T18:54:58.207Z,99750.13
2022-08-25T19:00:02.823Z,99760.00
2022-08-25T19:05:09.701Z,99749.00
2022-08-25T19:10:14.633Z,99748.72
2022-08-25T19:15:18.333Z,99744.00
2022-08-25T19:20:35.054Z,99741.88
2022-08-25T19:25:41.728Z,99727.47
2022-08-25T19:30:50.470Z,99729.34
2022-08-25T19:35:55.974Z,99735.00
2022-08-25T19:41:01.830Z,99734.59
2022-08-25T19:46:06.210Z,99740.47
2022-08-25T19:51:11.797Z,99746.84
2022-08-25T19:56:15.433Z,99752.47
2022-08-25T20:01:20.933Z,99736.41
2022-08-25T20:06:27.759Z,99742.53
2022-08-25T20:11:33.589Z,99745.31
2022-08-25T20:16:37.378Z,99739.38
2022-08-25T20:21:44.534Z,99738.56
2022-08-25T20:26:48.072Z,99745.97
2022-08-25T20:31:52.943Z,99743.50
2022-08-25T20:36:58.483Z,99731.59
2022-08-25T20:42:04.129Z,99742.22
2022-08-25T20:47:10.820Z,99743.97
2022-08-25T20:52:16.335Z,99744.19
2022-08-25T20:57:25.486Z,99736.56
2022-08-25T21:02:30.674Z,99737.56
2022-08-25T21:07:36.182Z,99746.47
2022-08-25T21:12:40.103Z,99745.13
2022-08-25T21:17:45.653Z,99748.94
2022-08-25T21:22:52.207Z,99744.81
2022-08-25T21:27:57.023Z,99751.69
2022-08-25T21:33:02.176Z,99758.16
2022-08-25T21:38:08.039Z,99759.06
2022-08-25T21:43:12.068Z,99759.25
2022-08-25T21:48:17.001Z,99768.09
2022-08-25T21:53:22.156Z,99761.94
2022-08-25T21:58:25.825Z,99760.44
2022-08-25T22:03:31.361Z,99763.25
2022-08-25T22:08:38.916Z,99756.31
2022-08-25T22:13:44.256Z,99752.28
2022-08-25T22:18:48.971Z,99750.09
2022-08-25T22:23:56.108Z,99750.16
2022-08-25T22:29:00.672Z,99753.88
2022-08-25T22:34:06.271Z,99748.88
2022-08-25T22:39:11.687Z,99748.94
2022-08-25T22:44:15.751Z,99747.53
2022-08-25T22:49:19.458Z,99748.81
2022-08-25T22:54:25.759Z,99751.34
2022-08-25T22:59:30.318Z,99745.44
2022-08-25T23:04:34.001Z,99743.72
2022-08-25T23:09:39.526Z,99750.56
2022-08-25T23:14:44.365Z,99737.81
2022-08-25T23:19:47.988Z,99745.78
2022-08-25T23:24:53.810Z,99739.56
2022-08-25T23:29:57.477Z,99737.78
2022-08-25T23:35:00.900Z,99723.22
2022-08-25T23:40:06.896Z,99742.34
2022-08-25T23:45:11.314Z,99729.13
2022-08-25T23:50:15.474Z,99737.06
2022-08-25T23:55:20.390Z,99748.00
